createdAt,value
2022-12-31T09:47:10.315Z,100148.56
2022-12-31T09:49:28.226Z,100252.53
2022-12-31T09:51:55.171Z,100276.06
2022-12-31T09:54:15.497Z,100312.09
2022-12-31T09:56:26.815Z,100337.25
2022-12-31T09:58:35.431Z,100377.09
2022-12-31T10:00:47.250Z,100406.50
2022-12-31T10:03:00.745Z,100406.91
2022-12-31T10:05:40.906Z,100442.25
2022-12-31T10:08:10.742Z,100492.22
2022-12-31T10:10:22.594Z,100494.53
2022-12-31T10:12:27.584Z,100465.97
2022-12-31T10:14:57.558Z,100468.19
2022-12-31T10:17:06.002Z,100458.53
2022-12-31T10:19:59.969Z,100474.63
2022-12-31T10:22:24.686Z,100474.09
2022-12-31T10:24:59.508Z,100493.44
2022-12-31T10:27:27.950Z,100497.09
2022-12-31T10:29:43.075Z,100510.06
2022-12-31T10:32:16.368Z,100517.16
2022-12-31T10:34:46.347Z,100520.38
2022-12-31T10:36:59.383Z,100524.16
2022-12-31T10:39:14.363Z,100549.56
2022-12-31T10:41:55.537Z,100559.59
2022-12-31T10:44:15.805Z,100575.94
2022-12-31T10:46:44.490Z,100540.69
2022-12-31T10:49:11.839Z,100498.81
2022-12-31T10:51:50.501Z,100467.28
2022-12-31T10:54:13.837Z,100431.06
2022-12-31T10:57:07.084Z,100449.81
2022-12-31T10:59:27.979Z,100459.25
2022-12-31T11:01:30.540Z,100463.66
2022-12-31T11:03:51.696Z,100456.72
2022-12-31T11:05:56.710Z,100464.31
2022-12-31T11:08:30.483Z,100471.44
2022-12-31T11:10:49.446Z,100447.59
2022-12-31T11:13:06.404Z,100445.97
2022-12-31T11:15:21.207Z,100438.50
2022-12-31T11:17:38.670Z,100420.25
2022-12-31T11:19:53.382Z,100404.16
2022-12-31T11:22:05.087Z,100381.94
2022-12-31T11:24:25.737Z,100382.22
2022-12-31T11:26:27.990Z,100410.13
2022-12-31T11:28:39.275Z,100392.94
2022-12-31T11:30:41.583Z,100409.38
2022-12-31T11:33:03.772Z,100423.56
2022-12-31T11:35:18.389Z,100421.13
2022-12-31T11:37:39.195Z,100422.66
2022-12-31T11:39:41.539Z,100443.44
2022-12-31T11:41:52.283Z,100460.66
2022-12-31T11:44:06.171Z,100465.78
2022-12-31T11:46:43.526Z,100494.13
2022-12-31T11:49:07.330Z,100521.69
2022-12-31T11:51:44.261Z,100533.62
2022-12-31T11:53:57.609Z,100535.50
2022-12-31T11:56:18.511Z,100546.59
2022-12-31T11:58:22.282Z,100565.75
2022-12-31T12:00:28.182Z,100581.50
2022-12-31T12:02:37.145Z,100601.66
2022-12-31T12:04:39.626Z,100603.66
2022-12-31T12:06:43.625Z,100620.72
2022-12-31T12:08:46.763Z,100655.91
2022-12-31T12:10:52.744Z,100661.16
2022-12-31T12:12:56.890Z,100676.66
2022-12-31T12:14:59.493Z,100674.69
2022-12-31T12:17:05.552Z,100681.81
2022-12-31T12:19:18.114Z,100677.41
2022-12-31T12:21:23.386Z,100688.91
2022-12-31T12:23:26.847Z,100704.72
2022-12-31T12:25:41.702Z,100714.81
2022-12-31T12:27:44.447Z,100722.31
2022-12-31T12:29:48.136Z,100741.41
2022-12-31T12:32:01.261Z,100728.63
2022-12-31T12:34:05.019Z,100729.16
2022-12-31T12:36:15.704Z,100738.19
2022-12-31T12:38:23.237Z,100761.41
2022-12-31T12:40:33.383Z,100783.03
2022-12-31T12:42:36.354Z,100777.47
2022-12-31T12:44:40.235Z,100771.81
2022-12-31T12:46:50.037Z,100783.38
2022-12-31T12:48:57.744Z,100788.50
2022-12-31T12:51:00.476Z,100789.16
2022-12-31T12:53:13.281Z,100797.97
2022-12-31T12:55:33.857Z,100799.41
2022-12-31T12:57:49.261Z,100804.94
2022-12-31T13:00:07.729Z,100804.22
2022-12-31T13:02:25.091Z,100803.78
2022-12-31T13:04:52.416Z,100800.50
2022-12-31T13:07:01.037Z,100796.50
2022-12-31T13:09:22.536Z,100780.38
2022-12-31T13:11:46.275Z,100758.25
2022-12-31T13:14:01.609Z,100754.31
2022-12-31T13:16:41.971Z,100740.41
2022-12-31T13:19:09.003Z,100730.56
2022-12-31T13:21:21.960Z,100715.81
2022-12-31T13:23:34.817Z,100717.28
2022-12-31T13:26:04.277Z,100731.31
2022-12-31T13:28:13.068Z,100721.41
2022-12-31T13:30:19.952Z,100730.97
2022-12-31T13:32:32.624Z,100735.59
2022-12-31T13:34:41.723Z,100757.84
2022-12-31T13:36:47.604Z,100725.41
2022-12-31T13:38:56.104Z,100724.97
2022-12-31T13:41:19.385Z,100713.34
2022-12-31T13:43:48.864Z,100666.84
2022-12-31T13:46:28.194Z,100645.00
2022-12-31T13:48:37.492Z,100617.84
2022-12-31T13:50:51.391Z,100588.66
2022-12-31T13:53:27.115Z,100601.09
2022-12-31T13:55:50.824Z,100605.00
2022-12-31T13:58:14.944Z,100609.75
2022-12-31T14:00:53.362Z,100614.03
2022-12-31T14:03:08.573Z,100629.22
2022-12-31T14:05:24.058Z,100637.19
2022-12-31T14:07:38.978Z,100619.16
2022-12-31T14:09:46.727Z,100612.97
2022-12-31T14:12:04.349Z,100606.44
2022-12-31T14:14:28.387Z,100609.56
2022-12-31T14:16:43.269Z,100607.09
2022-12-31T14:19:05.356Z,100590.94
2022-12-31T14:21:14.533Z,100571.91
2022-12-31T14:23:37.136Z,100557.88
2022-12-31T14:26:11.611Z,100545.66
2022-12-31T14:28:21.619Z,100545.72
2022-12-31T14:30:31.025Z,100556.28
2022-12-31T14:33:08.608Z,100548.47
2022-12-31T14:35:29.042Z,100528.44
2022-12-31T14:37:49.251Z,100514.41
2022-12-31T14:39:57.849Z,100503.34
2022-12-31T14:42:23.609Z,100489.16
2022-12-31T14:44:32.293Z,100480.34
2022-12-31T14:47:07.763Z,100472.78
2022-12-31T14:49:44.542Z,100484.19
2022-12-31T14:51:47.235Z,100481.31
2022-12-31T14:53:54.760Z,100474.72
2022-12-31T14:56:03.449Z,100463.19
2022-12-31T14:58:39.805Z,100447.84
2022-12-31T15:01:04.506Z,100440.94
2022-12-31T15:03:16.349Z,100453.91
2022-12-31T15:05:22.245Z,100451.41
2022-12-31T15:07:33.883Z,100444.91
2022-12-31T15:10:04.850Z,100423.28
2022-12-31T15:12:42.121Z,100416.50
2022-12-31T15:14:53.819Z,100405.78
2022-12-31T15:17:25.653Z,100400.47
2022-12-31T15:19:52.626Z,100390.00
2022-12-31T15:22:28.373Z,100374.69
2022-12-31T15:24:30.936Z,100346.75
2022-12-31T15:26:52.636Z,100336.75
2022-12-31T15:29:19.545Z,100318.00
2022-12-31T15:31:22.104Z,100314.72
2022-12-31T15:33:31.085Z,100295.31
2022-12-31T15:35:49.993Z,100302.38
2022-12-31T15:38:01.386Z,100322.37
2022-12-31T15:40:16.253Z,100313.53
2022-12-31T15:42:47.271Z,100314.44
2022-12-31T15:45:02.308Z,100308.03
2022-12-31T15:47:16.153Z,100319.72
2022-12-31T15:49:23.310Z,100319.47
2022-12-31T15:51:44.209Z,100320.12
2022-12-31T15:53:53.181Z,100339.41
2022-12-31T15:55:58.096Z,100343.41
2022-12-31T15:58:12.407Z,100359.09
2022-12-31T16:00:23.915Z,100350.38
2022-12-31T16:02:28.311Z,100354.97
2022-12-31T16:04:34.771Z,100367.03
2022-12-31T16:06:38.784Z,100351.41
2022-12-31T16:08:46.262Z,100337.69
2022-12-31T16:10:48.992Z,100328.56
2022-12-31T16:12:53.049Z,100294.75
2022-12-31T16:14:58.539Z,100282.78
2022-12-31T16:17:01.621Z,100276.94
2022-12-31T16:19:03.943Z,100282.62
2022-12-31T16:21:22.590Z,100290.41
2022-12-31T16:23:27.560Z,100293.63
2022-12-31T16:25:33.531Z,100269.50
2022-12-31T16:27:36.637Z,100252.31
2022-12-31T16:29:44.469Z,100238.75
2022-12-31T16:31:48.849Z,100226.38
2022-12-31T16:33:51.619Z,100232.03
2022-12-31T16:35:59.505Z,100228.91
2022-12-31T16:38:07.920Z,100221.03
2022-12-31T16:40:20.805Z,100214.44
2022-12-31T16:42:28.378Z,100224.13
2022-12-31T16:44:30.873Z,100223.47
2022-12-31T16:46:33.650Z,100227.16
2022-12-31T16:48:37.736Z,100220.53
2022-12-31T16:50:44.869Z,100227.09
2022-12-31T16:52:50.602Z,100235.19
2022-12-31T16:54:54.277Z,100231.38
2022-12-31T16:56:58.871Z,100227.91
2022-12-31T16:59:17.585Z,100214.59
2022-12-31T17:01:27.893Z,100202.81
2022-12-31T17:03:30.532Z,100195.81
2022-12-31T17:05:36.229Z,100176.84
2022-12-31T17:07:42.452Z,100169.16
2022-12-31T17:09:44.745Z,100154.06
2022-12-31T17:12:07.737Z,100157.81
2022-12-31T17:14:15.487Z,100152.22
2022-12-31T17:16:18.532Z,100165.06
2022-12-31T17:18:24.296Z,100154.25
2022-12-31T17:20:29.781Z,100146.50
2022-12-31T17:22:41.791Z,100153.69
2022-12-31T17:24:48.690Z,100157.31
2022-12-31T17:26:52.408Z,100170.34
2022-12-31T17:28:57.766Z,100164.31
2022-12-31T17:31:02.182Z,100181.38
2022-12-31T17:33:22.647Z,100204.62
2022-12-31T17:35:42.661Z,100219.69
2022-12-31T17:37:45.648Z,100231.62
2022-12-31T17:39:53.621Z,100243.13
2022-12-31T17:41:58.158Z,100241.94
2022-12-31T17:44:00.869Z,100224.97
2022-12-31T17:46:10.740Z,100201.38
2022-12-31T17:48:16.963Z,100201.94
2022-12-31T17:50:25.837Z,100197.31
2022-12-31T17:52:28.427Z,100204.09
2022-12-31T17:54:30.779Z,100215.16
2022-12-31T17:56:33.397Z,100233.81
2022-12-31T17:58:44.971Z,100242.72
2022-12-31T18:00:47.484Z,100249.81
2022-12-31T18:02:50.270Z,100240.19
2022-12-31T18:04:53.224Z,100243.75
2022-12-31T18:06:55.844Z,100234.38
2022-12-31T18:08:58.550Z,100229.22
2022-12-31T18:11:00.946Z,100217.31
2022-12-31T18:13:05.902Z,100202.28
2022-12-31T18:15:09.029Z,100194.06
2022-12-31T18:17:15.436Z,100200.72
2022-12-31T18:19:45.779Z,100203.75
2022-12-31T18:21:41.461Z,100205.47
2022-12-31T18:23:46.311Z,100206.37
2022-12-31T18:25:48.908Z,100197.06
2022-12-31T18:27:52.210Z,100180.41
2022-12-31T18:29:59.094Z,100176.06
2022-12-31T18:32:04.995Z,100172.50
2022-12-31T18:34:12.059Z,100170.88
2022-12-31T18:36:16.211Z,100166.59
2022-12-31T18:38:19.852Z,100164.44
2022-12-31T18:40:22.561Z,100166.97
2022-12-31T18:42:28.424Z,100164.19
2022-12-31T18:44:30.823Z,100177.97
2022-12-31T18:46:33.632Z,100184.09
2022-12-31T18:48:36.828Z,100181.56
2022-12-31T18:50:41.139Z,100190.44
2022-12-31T18:52:44.277Z,100189.28
2022-12-31T18:54:46.669Z,100191.34
2022-12-31T18:56:53.933Z,100204.41
2022-12-31T18:58:59.935Z,100206.06
2022-12-31T19:01:02.502Z,100213.19
2022-12-31T19:03:07.976Z,100221.44
2022-12-31T19:05:21.571Z,100222.75
2022-12-31T19:07:23.909Z,100213.00
2022-12-31T19:11:49.079Z,100214.22
2022-12-31T19:13:51.475Z,100210.75
2022-12-31T19:15:55.577Z,100217.69
2022-12-31T19:17:59.171Z,100219.44
2022-12-31T19:20:04.444Z,100205.84
2022-12-31T19:22:06.889Z,100197.78
2022-12-31T19:24:19.466Z,100181.41
2022-12-31T19:26:22.792Z,100175.87
2022-12-31T19:28:27.181Z,100183.56
2022-12-31T19:30:33.379Z,100177.88
2022-12-31T19:32:35.780Z,100170.81
2022-12-31T19:34:38.106Z,100165.44
2022-12-31T19:36:44.299Z,100164.59
2022-12-31T19:38:47.194Z,100164.97
2022-12-31T19:40:50.595Z,100172.56
2022-12-31T19:42:54.909Z,100204.34
2022-12-31T19:44:57.221Z,100213.03
2022-12-31T19:46:59.618Z,100221.94
2022-12-31T19:49:02.274Z,100242.78
2022-12-31T19:51:09.329Z,100231.72
2022-12-31T19:53:15.112Z,100236.53
2022-12-31T19:55:19.584Z,100236.53
2022-12-31T19:57:21.978Z,100227.50
2022-12-31T19:59:24.343Z,100209.22
2022-12-31T20:01:27.016Z,100186.97
2022-12-31T20:03:30.058Z,100170.44
2022-12-31T20:05:32.457Z,100161.81
2022-12-31T20:07:34.870Z,100155.59
2022-12-31T20:09:37.518Z,100163.06
2022-12-31T20:11:39.895Z,100174.56
2022-12-31T20:13:42.640Z,100182.50
2022-12-31T20:15:47.903Z,100181.06
2022-12-31T20:17:50.318Z,100192.06
2022-12-31T20:19:52.737Z,100187.09
2022-12-31T20:21:55.384Z,100187.09
2022-12-31T20:23:57.698Z,100195.75
2022-12-31T20:26:00.947Z,100207.94
2022-12-31T20:28:03.806Z,100218.41
2022-12-31T20:30:07.110Z,100216.41
2022-12-31T20:32:09.533Z,100219.94
2022-12-31T20:34:12.447Z,100223.41
2022-12-31T20:36:16.559Z,100209.87
2022-12-31T20:38:18.899Z,100204.34
2022-12-31T20:40:21.507Z,100205.66
2022-12-31T20:42:23.901Z,100202.94
2022-12-31T20:44:26.225Z,100210.88
2022-12-31T20:46:30.547Z,100225.84
2022-12-31T20:48:32.904Z,100231.03
2022-12-31T20:50:35.792Z,100235.44
2022-12-31T20:52:38.440Z,100237.19
2022-12-31T20:54:40.785Z,100235.06
2022-12-31T20:56:43.217Z,100240.50
2022-12-31T20:58:46.068Z,100225.78
2022-12-31T21:00:50.133Z,100220.84
2022-12-31T21:03:03.871Z,100207.56
2022-12-31T21:05:11.337Z,100202.31
2022-12-31T21:07:13.957Z,100190.97
2022-12-31T21:09:16.304Z,100179.31
2022-12-31T21:11:37.301Z,100181.56
2022-12-31T21:13:39.791Z,100194.06
2022-12-31T21:15:42.508Z,100203.22
2022-12-31T21:17:45.469Z,100200.47
2022-12-31T21:19:47.820Z,100211.56
2022-12-31T21:21:50.166Z,100210.72
2022-12-31T21:23:53.256Z,100204.13
2022-12-31T21:25:55.544Z,100204.94
2022-12-31T21:27:57.953Z,100190.66
2022-12-31T21:32:22.863Z,100201.47
2022-12-31T21:34:25.230Z,100201.38
2022-12-31T21:36:27.978Z,100195.56
2022-12-31T21:38:30.364Z,100193.94
2022-12-31T21:40:33.193Z,100191.28
2022-12-31T21:42:35.881Z,100183.84
2022-12-31T21:44:38.215Z,100179.25
2022-12-31T21:46:54.516Z,100193.28
2022-12-31T21:49:03.538Z,100188.88
2022-12-31T21:51:09.635Z,100182.03
2022-12-31T21:53:12.525Z,100178.78
2022-12-31T21:55:33.720Z,100178.41
2022-12-31T21:57:59.045Z,100167.47
2022-12-31T22:00:41.021Z,100161.19
2022-12-31T22:02:59.699Z,100153.69
2022-12-31T22:05:04.163Z,100132.66
2022-12-31T22:07:10.931Z,100145.16
2022-12-31T22:09:13.611Z,100131.47
2022-12-31T22:11:17.916Z,100134.75
2022-12-31T22:13:20.710Z,100128.31
2022-12-31T22:15:23.353Z,100126.16
2022-12-31T22:17:25.730Z,100117.53
2022-12-31T22:19:28.006Z,100121.78
2022-12-31T22:21:30.923Z,100117.31
2022-12-31T22:23:34.640Z,100115.66
2022-12-31T22:25:38.415Z,100112.56
2022-12-31T22:27:41.137Z,100117.41
2022-12-31T22:29:43.565Z,100105.13
2022-12-31T22:31:45.990Z,100110.84
2022-12-31T22:33:48.903Z,100097.69
2022-12-31T22:36:06.273Z,100108.31
2022-12-31T22:38:12.148Z,100122.37
2022-12-31T22:40:15.300Z,100105.34
2022-12-31T22:42:17.664Z,100096.19
2022-12-31T22:44:20.009Z,100089.13
2022-12-31T22:46:25.589Z,100087.50
2022-12-31T22:48:28.154Z,100077.94
2022-12-31T22:50:30.459Z,100073.94
2022-12-31T22:52:33.118Z,100063.63
2022-12-31T22:54:35.755Z,100059.00
2022-12-31T22:56:38.062Z,100056.38
2022-12-31T22:58:41.017Z,100051.72
2022-12-31T23:00:43.353Z,100053.50
2022-12-31T23:02:46.255Z,100069.00
2022-12-31T23:04:49.342Z,100068.44
2022-12-31T23:06:51.753Z,100068.50
2022-12-31T23:09:13.184Z,100055.19
2022-12-31T23:11:15.791Z,100054.31
2022-12-31T23:13:36.581Z,100061.47
2022-12-31T23:15:57.420Z,100047.41
2022-12-31T23:18:18.624Z,100051.47
2022-12-31T23:20:42.623Z,100047.88
2022-12-31T23:23:04.562Z,100052.81
2022-12-31T23:25:07.486Z,100050.41
2022-12-31T23:27:11.303Z,100060.09
2022-12-31T23:29:13.618Z,100064.00
2022-12-31T23:31:16.306Z,100058.00
2022-12-31T23:33:24.395Z,100063.94
2022-12-31T23:35:26.797Z,100063.06
2022-12-31T23:37:29.484Z,100065.72
2022-12-31T23:39:31.990Z,100061.50
2022-12-31T23:41:34.258Z,100066.78
2022-12-31T23:43:36.812Z,100068.88
2022-12-31T23:45:39.205Z,100068.13
2022-12-31T23:47:41.713Z,100075.78
2022-12-31T23:49:44.331Z,100081.41
2022-12-31T23:51:46.709Z,100078.38
2022-12-31T23:53:49.805Z,100078.75
2022-12-31T23:55:53.294Z,100068.72
2022-12-31T23:57:55.622Z,100063.87
2022-12-31T23:59:57.957Z,100067.09
